createdAt,value
2023-04-24T00:03:25.772Z,2.73
2023-04-24T00:07:34.910Z,2.90
2023-04-24T00:11:43.667Z,2.97
2023-04-24T00:15:52.386Z,3.43
2023-04-24T00:20:01.911Z,3.67
2023-04-24T00:24:10.558Z,2.90
2023-04-24T00:28:19.183Z,2.93
2023-04-24T00:32:27.830Z,3.70
2023-04-24T00:36:36.565Z,4.27
2023-04-24T00:40:45.405Z,4.73
2023-04-24T00:44:56.614Z,4.40
2023-04-24T00:49:07.136Z,3.17
2023-04-24T00:53:15.886Z,4.17
2023-04-24T00:57:24.956Z,6.07
2023-04-24T01:01:33.940Z,5.00
2023-04-24T01:05:43.400Z,8.53
2023-04-24T01:09:53.587Z,5.00
2023-04-24T01:14:03.130Z,6.30
2023-04-24T01:18:12.991Z,5.43
2023-04-24T01:22:22.255Z,6.30
2023-04-24T01:26:31.069Z,4.43
2023-04-24T01:30:39.902Z,6.00
2023-04-24T01:34:50.201Z,6.40
2023-04-24T01:38:58.905Z,5.13
2023-04-24T01:43:11.116Z,5.83
2023-04-24T01:47:19.860Z,5.63
2023-04-24T01:51:31.338Z,5.70
2023-04-24T01:55:40.238Z,6.97
2023-04-24T01:59:48.859Z,6.83
2023-04-24T02:03:57.529Z,6.20
2023-04-24T02:08:06.256Z,9.30
2023-04-24T02:12:18.386Z,8.33
2023-04-24T02:16:27.224Z,6.43
2023-04-24T02:20:36.545Z,11.60
2023-04-24T02:24:45.694Z,6.67
2023-04-24T02:28:54.423Z,12.00
2023-04-24T02:33:03.154Z,8.20
2023-04-24T02:37:11.805Z,11.97
2023-04-24T02:41:23.483Z,10.60
2023-04-24T02:45:36.913Z,7.87
2023-04-24T02:49:48.388Z,12.63
2023-04-24T02:53:57.395Z,10.70
2023-04-24T02:58:08.077Z,10.37
2023-04-24T03:02:18.687Z,11.20
2023-04-24T03:06:28.187Z,15.90
2023-04-24T03:10:39.211Z,10.07
2023-04-24T03:14:47.875Z,13.50
2023-04-24T03:18:56.611Z,10.77
2023-04-24T03:23:06.766Z,14.67
2023-04-24T03:27:16.721Z,12.77
2023-04-24T03:31:25.654Z,12.53
2023-04-24T03:35:34.833Z,13.83
2023-04-24T03:39:44.007Z,12.33
2023-04-24T03:43:52.982Z,10.33
2023-04-24T03:48:01.709Z,15.23
2023-04-24T03:52:11.828Z,13.00
2023-04-24T03:56:20.930Z,11.77
2023-04-24T04:00:29.547Z,13.50
2023-04-24T04:04:43.584Z,12.67
2023-04-24T04:08:52.435Z,11.77
2023-04-24T04:13:01.268Z,8.97
2023-04-24T04:17:10.001Z,11.93
2023-04-24T04:21:18.731Z,9.70
2023-04-24T04:25:27.357Z,9.70
2023-04-24T04:29:36.946Z,10.70
2023-04-24T04:33:48.052Z,10.83
2023-04-24T04:37:58.364Z,9.37
2023-04-24T04:42:10.001Z,10.57
2023-04-24T04:46:18.694Z,8.60
2023-04-24T04:50:27.599Z,9.30
2023-04-24T04:54:36.324Z,13.13
2023-04-24T04:58:45.091Z,11.00
2023-04-24T05:03:03.136Z,9.03
2023-04-24T05:07:09.196Z,7.83
2023-04-24T05:11:17.552Z,10.67
2023-04-24T05:15:26.275Z,6.87
2023-04-24T05:19:36.500Z,8.80
2023-04-24T05:23:45.200Z,8.00
2023-04-24T05:27:54.522Z,9.43
2023-04-24T05:32:03.346Z,6.17
2023-04-24T05:36:12.075Z,9.43
2023-04-24T05:40:20.805Z,9.10
2023-04-24T05:44:29.431Z,8.33
2023-04-24T05:48:38.022Z,9.53
2023-04-24T05:52:46.614Z,7.93
2023-04-24T05:56:56.460Z,8.03
2023-04-24T06:01:05.172Z,9.13
2023-04-24T06:05:13.851Z,7.10
2023-04-24T06:09:22.537Z,10.90
2023-04-24T06:13:31.891Z,11.30
2023-04-24T06:17:40.638Z,7.07
2023-04-24T06:21:49.295Z,11.33
2023-04-24T06:25:57.973Z,9.37
2023-04-24T06:30:07.354Z,8.93
2023-04-24T06:34:15.963Z,8.40
2023-04-24T06:38:25.389Z,7.70
2023-04-24T06:42:34.019Z,6.37
2023-04-24T06:46:43.335Z,7.83
2023-04-24T06:50:52.093Z,7.37
2023-04-24T06:55:05.169Z,6.87
2023-04-24T06:59:13.964Z,6.77
2023-04-24T07:03:23.217Z,4.43
2023-04-24T07:07:39.036Z,6.43
2023-04-24T07:11:48.169Z,3.70
2023-04-24T07:15:57.356Z,3.30
2023-04-24T07:20:10.972Z,4.60
2023-04-24T07:24:22.045Z,3.40
2023-04-24T07:28:31.632Z,3.73
2023-04-24T07:32:40.303Z,3.40
2023-04-24T07:36:49.169Z,3.03
2023-04-24T07:40:58.069Z,3.10
2023-04-24T07:45:07.850Z,2.60
2023-04-24T07:49:18.402Z,2.70
2023-04-24T07:53:26.678Z,2.50
2023-04-24T07:57:35.517Z,3.20
2023-04-24T08:01:44.185Z,4.00
2023-04-24T08:05:52.868Z,2.53
2023-04-24T08:10:01.761Z,2.40
2023-04-24T08:14:13.580Z,2.80
2023-04-24T08:18:22.346Z,2.47
2023-04-24T08:22:31.328Z,2.17
2023-04-24T08:26:39.946Z,4.80
2023-04-24T08:30:49.293Z,2.03
2023-04-24T08:35:01.408Z,2.63
2023-04-24T08:39:10.236Z,2.50
2023-04-24T08:43:19.213Z,2.20
2023-04-24T08:47:29.238Z,2.30
2023-04-24T08:52:00.044Z,2.60
2023-04-24T08:56:09.079Z,6.30
2023-04-24T09:00:19.033Z,7.83
2023-04-24T09:04:30.087Z,9.07
2023-04-24T09:08:40.372Z,7.27
2023-04-24T09:12:49.134Z,8.37
2023-04-24T09:16:58.039Z,6.90
2023-04-24T09:21:11.433Z,8.47
2023-04-24T09:25:20.272Z,6.50
2023-04-24T09:29:29.214Z,6.47
2023-04-24T09:33:38.349Z,10.40
2023-04-24T09:37:49.830Z,8.10
2023-04-24T09:41:59.544Z,8.43
2023-04-24T09:46:10.977Z,6.30
2023-04-24T09:50:21.102Z,8.47
2023-04-24T09:54:30.913Z,7.07
2023-04-24T09:58:39.675Z,7.20
2023-04-24T10:02:53.284Z,3.67
2023-04-24T10:07:03.864Z,6.43
2023-04-24T10:11:14.340Z,6.20
2023-04-24T10:15:23.387Z,5.17
2023-04-24T10:19:32.517Z,5.30
2023-04-24T10:28:00.040Z,7.17
2023-04-24T10:32:10.714Z,13.90
2023-04-24T10:36:20.401Z,7.60
2023-04-24T10:40:34.437Z,7.43
2023-04-24T10:44:43.221Z,18.83
2023-04-24T10:48:56.587Z,7.53
2023-04-24T10:53:11.040Z,7.20
2023-04-24T10:57:45.235Z,6.37
2023-04-24T11:01:57.391Z,8.50
2023-04-24T11:06:11.137Z,9.80
2023-04-24T11:10:29.164Z,6.03
2023-04-24T11:15:00.533Z,6.43
2023-04-24T11:19:12.247Z,15.87
2023-04-24T11:23:21.699Z,4.53
2023-04-24T11:27:33.676Z,6.27
2023-04-24T11:31:51.430Z,8.33
2023-04-24T11:36:00.600Z,8.63
2023-04-24T11:40:31.003Z,5.20
2023-04-24T11:44:40.168Z,7.60
2023-04-24T11:48:48.872Z,5.93
2023-04-24T11:52:57.829Z,5.00
2023-04-24T11:57:07.756Z,4.83
2023-04-24T12:01:16.601Z,10.70
2023-04-24T12:05:29.615Z,4.93
2023-04-24T12:09:47.582Z,7.73
2023-04-24T12:13:57.336Z,4.47
2023-04-24T12:18:26.781Z,5.70
2023-04-24T12:23:14.541Z,3.90
2023-04-24T12:27:23.333Z,3.20
2023-04-24T12:31:33.446Z,6.30
2023-04-24T12:35:42.994Z,7.30
2023-04-24T12:40:12.008Z,5.90
2023-04-24T12:44:20.771Z,3.50
2023-04-24T12:48:30.530Z,3.73
2023-04-24T12:53:01.575Z,4.30
2023-04-24T12:57:10.222Z,6.33
2023-04-24T13:01:19.013Z,2.30
2023-04-24T13:05:28.508Z,2.53
2023-04-24T13:09:37.142Z,2.63
2023-04-24T13:13:46.070Z,2.53
2023-04-24T13:17:54.759Z,5.90
2023-04-24T13:22:05.216Z,3.77
2023-04-24T13:26:13.905Z,3.20
2023-04-24T13:30:22.528Z,2.90
2023-04-24T13:34:31.266Z,7.17
2023-04-24T13:38:39.888Z,5.43
2023-04-24T13:42:48.482Z,4.47
2023-04-24T13:46:58.608Z,5.40
2023-04-24T13:51:07.313Z,2.70
2023-04-24T13:55:16.048Z,4.87
2023-04-24T13:59:25.906Z,4.30
2023-04-24T14:03:36.006Z,2.80
2023-04-24T14:07:44.705Z,2.93
2023-04-24T14:11:54.235Z,3.53
2023-04-24T14:16:03.009Z,3.33
2023-04-24T14:20:11.888Z,3.83
2023-04-24T14:24:21.584Z,4.60
2023-04-24T14:28:30.501Z,3.10
2023-04-24T14:32:40.901Z,3.10
2023-04-24T14:36:49.710Z,3.47
2023-04-24T14:41:07.106Z,3.87
2023-04-24T14:45:29.596Z,4.10
2023-04-24T14:49:38.292Z,3.27
2023-04-24T14:53:48.580Z,3.80
2023-04-24T14:57:57.361Z,3.20
2023-04-24T15:02:15.550Z,4.00
2023-04-24T15:06:16.332Z,2.90
2023-04-24T15:10:26.591Z,2.93
2023-04-24T15:14:35.258Z,2.93
2023-04-24T15:18:44.035Z,2.50
2023-04-24T15:22:52.683Z,2.47
2023-04-24T15:27:02.622Z,3.73
2023-04-24T15:31:11.224Z,6.40
2023-04-24T15:35:20.037Z,2.60
2023-04-24T15:39:28.964Z,4.30
2023-04-24T15:43:39.502Z,3.40
2023-04-24T15:47:48.147Z,3.50
2023-04-24T15:51:56.761Z,5.87
2023-04-24T15:56:05.937Z,5.80
2023-04-24T16:00:16.085Z,3.47
2023-04-24T16:04:24.895Z,4.20
2023-04-24T16:08:33.742Z,3.17
2023-04-24T16:12:42.778Z,3.07
2023-04-24T16:16:51.407Z,3.50
2023-04-24T16:21:01.141Z,5.77
2023-04-24T16:25:10.650Z,3.03
2023-04-24T16:29:19.864Z,3.60
2023-04-24T16:33:28.454Z,6.23
2023-04-24T16:37:37.217Z,3.33
2023-04-24T16:41:45.957Z,6.70
2023-04-24T16:45:55.522Z,4.27
2023-04-24T16:50:05.379Z,3.33
2023-04-24T16:54:14.078Z,4.17
2023-04-24T16:58:22.810Z,7.00
2023-04-24T17:02:31.715Z,3.10
2023-04-24T17:06:40.380Z,5.30
2023-04-24T17:10:49.059Z,6.73
2023-04-24T17:14:57.670Z,3.20
2023-04-24T17:19:06.903Z,7.13
2023-04-24T17:23:15.713Z,4.23
2023-04-24T17:27:25.242Z,3.00
2023-04-24T17:31:33.940Z,3.20
2023-04-24T17:35:42.725Z,5.10
2023-04-24T17:39:51.477Z,6.80
2023-04-24T17:44:00.189Z,4.63
2023-04-24T17:48:08.853Z,2.63
2023-04-24T17:52:17.758Z,6.70
2023-04-24T17:56:27.080Z,3.77
2023-04-24T18:00:35.944Z,4.67
2023-04-24T18:04:45.132Z,5.63
2023-04-24T18:09:14.984Z,5.47
2023-04-24T18:13:23.605Z,5.20
2023-04-24T18:17:32.369Z,3.37
2023-04-24T18:21:41.292Z,9.80
2023-04-24T18:25:49.952Z,4.40
2023-04-24T18:29:59.469Z,9.87
2023-04-24T18:34:08.111Z,4.43
2023-04-24T18:38:17.086Z,9.27
2023-04-24T18:42:25.777Z,4.80
2023-04-24T18:46:36.060Z,3.95
2023-04-24T18:50:45.272Z,3.80
2023-04-24T18:54:54.113Z,7.17
2023-04-24T18:59:02.847Z,6.77
2023-04-24T19:03:11.730Z,6.33
2023-04-24T19:07:21.320Z,6.57
2023-04-24T19:11:30.001Z,5.07
2023-04-24T19:15:40.422Z,4.10
2023-04-24T19:19:49.161Z,6.37
2023-04-24T19:23:58.331Z,4.07
2023-04-24T19:28:07.721Z,4.50
2023-04-24T19:32:16.826Z,8.97
2023-04-24T19:36:25.823Z,8.50
2023-04-24T19:40:34.555Z,5.50
2023-04-24T19:44:43.393Z,5.50
2023-04-24T19:48:52.196Z,4.77
2023-04-24T19:53:01.173Z,6.30
2023-04-24T19:57:09.894Z,5.80
2023-04-24T20:01:18.983Z,5.50
2023-04-24T20:05:27.812Z,7.67
2023-04-24T20:09:36.602Z,5.43
2023-04-24T20:13:45.544Z,6.90
2023-04-24T20:17:54.269Z,4.73
2023-04-24T20:22:02.812Z,7.83
2023-04-24T20:26:11.528Z,5.97
2023-04-24T20:30:20.151Z,8.83
2023-04-24T20:34:32.889Z,12.50
2023-04-24T20:38:42.737Z,7.67
2023-04-24T20:42:51.567Z,10.20
2023-04-24T20:47:00.576Z,7.33
2023-04-24T20:51:10.768Z,5.80
2023-04-24T20:55:19.658Z,10.93
2023-04-24T20:59:29.081Z,12.30
2023-04-24T21:03:38.005Z,14.23
2023-04-24T21:07:46.791Z,8.87
2023-04-24T21:11:55.789Z,5.33
2023-04-24T21:16:04.601Z,7.07
2023-04-24T21:20:13.629Z,12.00
2023-04-24T21:24:22.873Z,7.60
2023-04-24T21:28:32.026Z,6.43
2023-04-24T21:32:40.873Z,8.40
2023-04-24T21:36:49.623Z,11.03
2023-04-24T21:40:58.291Z,7.03
2023-04-24T21:45:07.513Z,6.70
2023-04-24T21:49:16.102Z,13.40
2023-04-24T21:53:24.801Z,10.00
2023-04-24T21:57:33.435Z,10.10
2023-04-24T22:01:42.088Z,7.23
2023-04-24T22:05:50.796Z,9.50
2023-04-24T22:09:59.534Z,8.57
2023-04-24T22:14:08.156Z,19.80
2023-04-24T22:18:17.730Z,8.30
2023-04-24T22:26:41.827Z,5.20
2023-04-24T22:30:50.754Z,9.18
2023-04-24T22:34:59.584Z,9.63
2023-04-24T22:39:10.376Z,16.33
2023-04-24T22:43:19.301Z,10.43
2023-04-24T22:47:28.097Z,7.60
2023-04-24T22:51:37.500Z,7.73
2023-04-24T22:55:46.499Z,9.37
2023-04-24T22:59:55.360Z,8.37
2023-04-24T23:04:04.280Z,7.67
2023-04-24T23:08:12.920Z,8.43
2023-04-24T23:12:21.532Z,5.33
2023-04-24T23:16:34.807Z,6.87
2023-04-24T23:20:43.510Z,5.77
2023-04-24T23:24:52.242Z,5.87
2023-04-24T23:29:00.876Z,8.00
2023-04-24T23:33:09.547Z,10.73
2023-04-24T23:37:19.166Z,4.87
2023-04-24T23:41:28.004Z,13.90
2023-04-24T23:45:37.571Z,8.43
2023-04-24T23:49:46.167Z,6.60
2023-04-24T23:53:54.901Z,10.20
2023-04-24T23:58:03.774Z,8.70
